sensor_id;sensor_type;location;lat;lon;timestamp;pressure;altitude;pressure_sealevel;temperature;humidity
9893;BME280;4985;49.092;8.542;2023-02-04T00:01:55;100640.97;;;13.63;54.87
9893;BME280;4985;49.092;8.542;2023-02-04T00:04:22;100636.66;;;13.62;54.85
9893;BME280;4985;49.092;8.542;2023-02-04T00:06:48;100628.56;;;13.63;54.84
9893;BME280;4985;49.092;8.542;2023-02-04T00:09:15;100639.97;;;13.64;54.83
9893;BME280;4985;49.092;8.542;2023-02-04T00:11:43;100655.03;;;13.63;54.83
9893;BME280;4985;49.092;8.542;2023-02-04T00:14:10;100642.62;;;13.64;54.84
9893;BME280;4985;49.092;8.542;2023-02-04T00:16:36;100649.56;;;13.65;54.82
9893;BME280;4985;49.092;8.542;2023-02-04T00:19:03;100652.22;;;13.65;54.81
9893;BME280;4985;49.092;8.542;2023-02-04T00:21:29;100651.22;;;13.66;54.80
9893;BME280;4985;49.092;8.542;2023-02-04T00:23:56;100645.94;;;13.66;54.79
9893;BME280;4985;49.092;8.542;2023-02-04T00:26:23;100644.13;;;13.66;54.78
9893;BME280;4985;49.092;8.542;2023-02-04T00:28:50;100648.59;;;13.66;54.78
9893;BME280;4985;49.092;8.542;2023-02-04T00:31:17;100648.59;;;13.66;54.79
9893;BME280;4985;49.092;8.542;2023-02-04T00:33:44;100659.16;;;13.66;54.78
9893;BME280;4985;49.092;8.542;2023-02-04T00:36:10;100652.22;;;13.65;54.81
9893;BME280;4985;49.092;8.542;2023-02-04T00:38:37;100675.06;;;13.66;54.83
9893;BME280;4985;49.092;8.542;2023-02-04T00:41:03;100677.84;;;13.64;54.86
9893;BME280;4985;49.092;8.542;2023-02-04T00:43:31;100682.31;;;13.64;54.87
9893;BME280;4985;49.092;8.542;2023-02-04T00:45:59;100672.56;;;13.64;54.87
9893;BME280;4985;49.092;8.542;2023-02-04T00:48:25;100678.69;;;13.65;54.85
9893;BME280;4985;49.092;8.542;2023-02-04T00:50:52;100695.53;;;13.64;54.84
9893;BME280;4985;49.092;8.542;2023-02-04T00:53:19;100690.94;;;13.66;54.85
9893;BME280;4985;49.092;8.542;2023-02-04T00:55:45;100717.38;;;13.66;54.85
9893;BME280;4985;49.092;8.542;2023-02-04T00:58:12;100725.03;;;13.69;54.77
9893;BME280;4985;49.092;8.542;2023-02-04T01:00:39;100729.06;;;13.73;54.68
9893;BME280;4985;49.092;8.542;2023-02-04T01:03:07;100720.97;;;13.75;54.62
9893;BME280;4985;49.092;8.542;2023-02-04T01:05:33;100715.81;;;13.73;54.57
9893;BME280;4985;49.092;8.542;2023-02-04T01:08:00;100719.00;;;13.77;54.54
9893;BME280;4985;49.092;8.542;2023-02-04T01:10:27;100725.13;;;13.77;54.53
9893;BME280;4985;49.092;8.542;2023-02-04T01:12:53;100728.75;;;13.76;54.52
9893;BME280;4985;49.092;8.542;2023-02-04T01:15:20;100712.72;;;13.78;54.48
9893;BME280;4985;49.092;8.542;2023-02-04T01:17:47;100721.50;;;13.78;54.48
9893;BME280;4985;49.092;8.542;2023-02-04T01:20:16;100698.13;;;13.74;54.50
9893;BME280;4985;49.092;8.542;2023-02-04T01:22:42;100712.03;;;13.76;54.53
9893;BME280;4985;49.092;8.542;2023-02-04T01:25:09;100717.50;;;13.74;54.58
9893;BME280;4985;49.092;8.542;2023-02-04T01:27:36;100734.34;;;13.73;54.64
9893;BME280;4985;49.092;8.542;2023-02-04T01:30:03;100727.41;;;13.72;54.66
9893;BME280;4985;49.092;8.542;2023-02-04T01:32:30;100738.81;;;13.73;54.66
9893;BME280;4985;49.092;8.542;2023-02-04T01:34:56;100743.13;;;13.74;54.64
9893;BME280;4985;49.092;8.542;2023-02-04T01:37:24;100736.00;;;13.74;54.62
9893;BME280;4985;49.092;8.542;2023-02-04T01:39:51;100748.25;;;13.75;54.59
9893;BME280;4985;49.092;8.542;2023-02-04T01:42:17;100743.66;;;13.77;54.58
9893;BME280;4985;49.092;8.542;2023-02-04T01:44:44;100741.84;;;13.78;54.54
9893;BME280;4985;49.092;8.542;2023-02-04T01:47:11;100739.19;;;13.78;54.51
9893;BME280;4985;49.092;8.542;2023-02-04T01:49:38;100742.66;;;13.78;54.50
9893;BME280;4985;49.092;8.542;2023-02-04T01:52:05;100741.84;;;13.78;54.51
9893;BME280;4985;49.092;8.542;2023-02-04T01:54:33;100753.25;;;13.78;54.53
9893;BME280;4985;49.092;8.542;2023-02-04T01:57:00;100751.59;;;13.77;54.54
9893;BME280;4985;49.092;8.542;2023-02-04T01:59:27;100745.47;;;13.77;54.54
9893;BME280;4985;49.092;8.542;2023-02-04T02:01:53;100753.56;;;13.75;54.57
9893;BME280;4985;49.092;8.542;2023-02-04T02:04:25;100750.91;;;13.75;54.60
9893;BME280;4985;49.092;8.542;2023-02-04T02:06:56;100748.41;;;13.74;54.63
9893;BME280;4985;49.092;8.542;2023-02-04T02:09:23;100745.22;;;13.70;54.63
9893;BME280;4985;49.092;8.542;2023-02-04T02:11:52;100753.56;;;13.75;54.60
9893;BME280;4985;49.092;8.542;2023-02-04T02:14:19;100740.03;;;13.78;54.55
9893;BME280;4985;49.092;8.542;2023-02-04T02:16:46;100748.63;;;13.80;54.48
9893;BME280;4985;49.092;8.542;2023-02-04T02:19:15;100754.75;;;13.81;54.44
9893;BME280;4985;49.092;8.542;2023-02-04T02:21:47;100761.75;;;13.82;54.41
9893;BME280;4985;49.092;8.542;2023-02-04T02:24:25;100754.66;;;13.82;54.40
9893;BME280;4985;49.092;8.542;2023-02-04T02:26:52;100756.31;;;13.83;54.38
9893;BME280;4985;49.092;8.542;2023-02-04T02:29:20;100757.97;;;13.84;54.35
9893;BME280;4985;49.092;8.542;2023-02-04T02:31:47;100752.69;;;13.84;54.35
9893;BME280;4985;49.092;8.542;2023-02-04T02:34:14;100747.38;;;13.84;54.33
9893;BME280;4985;49.092;8.542;2023-02-04T02:36:41;100749.03;;;13.85;54.32
9893;BME280;4985;49.092;8.542;2023-02-04T02:39:08;100757.12;;;13.84;54.36
9893;BME280;4985;49.092;8.542;2023-02-04T02:41:36;100757.56;;;13.79;54.37
9893;BME280;4985;49.092;8.542;2023-02-04T02:44:04;100761.59;;;13.83;54.38
9893;BME280;4985;49.092;8.542;2023-02-04T02:46:31;100760.78;;;13.83;54.40
9893;BME280;4985;49.092;8.542;2023-02-04T02:48:57;100766.91;;;13.83;54.40
9893;BME280;4985;49.092;8.542;2023-02-04T02:51:25;100764.41;;;13.82;54.39
9893;BME280;4985;49.092;8.542;2023-02-04T02:53:51;100769.37;;;13.85;54.37
9893;BME280;4985;49.092;8.542;2023-02-04T02:56:18;100766.91;;;13.83;54.37
9893;BME280;4985;49.092;8.542;2023-02-04T02:58:46;100765.22;;;13.82;54.41
9893;BME280;4985;49.092;8.542;2023-02-04T03:01:13;100758.25;;;13.81;54.42
9893;BME280;4985;49.092;8.542;2023-02-04T03:03:44;100758.41;;;13.80;54.43
9893;BME280;4985;49.092;8.542;2023-02-04T03:06:15;100772.47;;;13.80;54.44
9893;BME280;4985;49.092;8.542;2023-02-04T03:08:45;100771.63;;;13.80;54.46
9893;BME280;4985;49.092;8.542;2023-02-04T03:11:13;100765.50;;;13.79;54.44
9893;BME280;4985;49.092;8.542;2023-02-04T03:13:40;100774.12;;;13.81;54.44
9893;BME280;4985;49.092;8.542;2023-02-04T03:16:09;100772.47;;;13.80;54.41
9893;BME280;4985;49.092;8.542;2023-02-04T03:18:36;100776.78;;;13.81;54.42
9893;BME280;4985;49.092;8.542;2023-02-04T03:21:04;100787.38;;;13.81;54.43
9893;BME280;4985;49.092;8.542;2023-02-04T03:23:31;100784.72;;;13.81;54.44
9893;BME280;4985;49.092;8.542;2023-02-04T03:25:58;100789.06;;;13.82;54.43
9893;BME280;4985;49.092;8.542;2023-02-04T03:28:25;100791.56;;;13.84;54.40
9893;BME280;4985;49.092;8.542;2023-02-04T03:30:52;100796.00;;;13.83;54.39
9893;BME280;4985;49.092;8.542;2023-02-04T03:33:21;100804.78;;;13.84;54.39
9893;BME280;4985;49.092;8.542;2023-02-04T03:35:48;100812.72;;;13.84;54.39
9893;BME280;4985;49.092;8.542;2023-02-04T03:38:15;100816.22;;;13.84;54.38
9893;BME280;4985;49.092;8.542;2023-02-04T03:40:42;100813.56;;;13.84;54.36
9893;BME280;4985;49.092;8.542;2023-02-04T03:43:09;100820.53;;;13.85;54.35
9893;BME280;4985;49.092;8.542;2023-02-04T03:45:35;100813.00;;;13.81;54.36
9893;BME280;4985;49.092;8.542;2023-02-04T03:48:02;100819.84;;;13.83;54.38
9893;BME280;4985;49.092;8.542;2023-02-04T03:50:30;100814.53;;;13.83;54.39
9893;BME280;4985;49.092;8.542;2023-02-04T03:52:57;100819.00;;;13.83;54.39
9893;BME280;4985;49.092;8.542;2023-02-04T03:55:23;100822.47;;;13.83;54.41
9893;BME280;4985;49.092;8.542;2023-02-04T03:57:51;100819.13;;;13.81;54.42
9893;BME280;4985;49.092;8.542;2023-02-04T04:00:18;100818.16;;;13.82;54.45
9893;BME280;4985;49.092;8.542;2023-02-04T04:02:45;100814.13;;;13.78;54.45
9893;BME280;4985;49.092;8.542;2023-02-04T04:05:11;100818.44;;;13.79;54.45
9893;BME280;4985;49.092;8.542;2023-02-04T04:07:39;100821.09;;;13.79;54.45
9893;BME280;4985;49.092;8.542;2023-02-04T04:10:06;100819.28;;;13.80;54.45
9893;BME280;4985;49.092;8.542;2023-02-04T04:12:33;100819.28;;;13.80;54.49
9893;BME280;4985;49.092;8.542;2023-02-04T04:14:59;100820.25;;;13.79;54.51
9893;BME280;4985;49.092;8.542;2023-02-04T04:17:26;100816.78;;;13.78;54.52
9893;BME280;4985;49.092;8.542;2023-02-04T04:19:52;100811.47;;;13.78;54.53
9893;BME280;4985;49.092;8.542;2023-02-04T04:22:19;100809.81;;;13.77;54.54
9893;BME280;4985;49.092;8.542;2023-02-04T04:24:47;100817.75;;;13.77;54.56
9893;BME280;4985;49.092;8.542;2023-02-04T04:27:13;100834.63;;;13.76;54.59
9893;BME280;4985;49.092;8.542;2023-02-04T04:29:40;100835.59;;;13.75;54.62
9893;BME280;4985;49.092;8.542;2023-02-04T04:32:07;100839.91;;;13.76;54.63
9893;BME280;4985;49.092;8.542;2023-02-04T04:34:33;100834.63;;;13.76;54.62
9893;BME280;4985;49.092;8.542;2023-02-04T04:37:00;100831.16;;;13.76;54.61
9893;BME280;4985;49.092;8.542;2023-02-04T04:39:27;100837.13;;;13.78;54.57
9893;BME280;4985;49.092;8.542;2023-02-04T04:41:55;100836.28;;;13.77;54.55
9893;BME280;4985;49.092;8.542;2023-02-04T04:44:21;100832.50;;;13.80;54.51
9893;BME280;4985;49.092;8.542;2023-02-04T04:46:48;100826.38;;;13.79;54.49
9893;BME280;4985;49.092;8.542;2023-02-04T04:49:14;100830.84;;;13.79;54.49
9893;BME280;4985;49.092;8.542;2023-02-04T04:51:41;100850.22;;;13.79;54.50
9893;BME280;4985;49.092;8.542;2023-02-04T04:54:08;100857.47;;;13.77;54.49
9893;BME280;4985;49.092;8.542;2023-02-04T04:56:35;100872.78;;;13.83;54.43
9893;BME280;4985;49.092;8.542;2023-02-04T04:59:02;100869.16;;;13.84;54.39
9893;BME280;4985;49.092;8.542;2023-02-04T05:01:29;100863.84;;;13.84;54.37
9893;BME280;4985;49.092;8.542;2023-02-04T05:03:56;100858.56;;;13.84;54.37
9893;BME280;4985;49.092;8.542;2023-02-04T05:06:22;100851.59;;;13.83;54.39
9893;BME280;4985;49.092;8.542;2023-02-04T05:08:49;100854.41;;;13.82;54.42
9893;BME280;4985;49.092;8.542;2023-02-04T05:11:16;100848.41;;;13.80;54.45
9893;BME280;4985;49.092;8.542;2023-02-04T05:13:43;100861.63;;;13.80;54.48
9893;BME280;4985;49.092;8.542;2023-02-04T05:16:11;100859.97;;;13.79;54.50
9893;BME280;4985;49.092;8.542;2023-02-04T05:18:39;100873.06;;;13.80;54.48
9893;BME280;4985;49.092;8.542;2023-02-04T05:21:06;100880.00;;;13.81;54.45
9893;BME280;4985;49.092;8.542;2023-02-04T05:23:33;100877.25;;;13.83;54.44
9893;BME280;4985;49.092;8.542;2023-02-04T05:25:59;100880.00;;;13.81;54.41
9893;BME280;4985;49.092;8.542;2023-02-04T05:28:26;100874.59;;;13.83;54.39
9893;BME280;4985;49.092;8.542;2023-02-04T05:30:53;100878.06;;;13.83;54.41
9893;BME280;4985;49.092;8.542;2023-02-04T05:33:20;100875.56;;;13.82;54.42
9893;BME280;4985;49.092;8.542;2023-02-04T05:35:47;100867.47;;;13.83;54.38
9893;BME280;4985;49.092;8.542;2023-02-04T05:38:14;100872.78;;;13.83;54.38
9893;BME280;4985;49.092;8.542;2023-02-04T05:40:40;100878.91;;;13.84;54.38
9893;BME280;4985;49.092;8.542;2023-02-04T05:43:07;100874.44;;;13.84;54.35
9893;BME280;4985;49.092;8.542;2023-02-04T05:45:33;100875.28;;;13.85;54.34
9893;BME280;4985;49.092;8.542;2023-02-04T05:48:00;100887.69;;;13.84;54.36
9893;BME280;4985;49.092;8.542;2023-02-04T05:50:28;100878.06;;;13.83;54.37
9893;BME280;4985;49.092;8.542;2023-02-04T05:52:55;100880.00;;;13.81;54.40
9893;BME280;4985;49.092;8.542;2023-02-04T05:55:21;100885.31;;;13.81;54.41
9893;BME280;4985;49.092;8.542;2023-02-04T05:57:48;100885.31;;;13.81;54.41
9893;BME280;4985;49.092;8.542;2023-02-04T06:00:14;100892.28;;;13.82;54.40
9893;BME280;4985;49.092;8.542;2023-02-04T06:02:41;100898.41;;;13.83;54.41
9893;BME280;4985;49.092;8.542;2023-02-04T06:05:08;100904.53;;;13.83;54.39
9893;BME280;4985;49.092;8.542;2023-02-04T06:07:35;100909.69;;;13.85;54.35
9893;BME280;4985;49.092;8.542;2023-02-04T06:10:02;100906.22;;;13.84;54.33
9893;BME280;4985;49.092;8.542;2023-02-04T06:12:29;100922.09;;;13.84;54.33
9893;BME280;4985;49.092;8.542;2023-02-04T06:14:56;100922.09;;;13.84;54.34
9893;BME280;4985;49.092;8.542;2023-02-04T06:17:22;100927.38;;;13.84;54.35
9893;BME280;4985;49.092;8.542;2023-02-04T06:19:49;100922.94;;;13.85;54.34
9893;BME280;4985;49.092;8.542;2023-02-04T06:22:16;100915.81;;;13.85;54.30
9893;BME280;4985;49.092;8.542;2023-02-04T06:24:44;100921.25;;;13.84;54.31
9893;BME280;4985;49.092;8.542;2023-02-04T06:27:10;100926.56;;;13.84;54.34
9893;BME280;4985;49.092;8.542;2023-02-04T06:29:37;100935.47;;;13.83;54.37
9893;BME280;4985;49.092;8.542;2023-02-04T06:32:04;100937.28;;;13.82;54.39
9893;BME280;4985;49.092;8.542;2023-02-04T06:34:30;100933.66;;;13.83;54.36
9893;BME280;4985;49.092;8.542;2023-02-04T06:36:57;100946.75;;;13.85;54.33
9893;BME280;4985;49.092;8.542;2023-02-04T06:39:23;100952.06;;;13.85;54.32
9893;BME280;4985;49.092;8.542;2023-02-04T06:41:51;100953.88;;;13.84;54.30
9893;BME280;4985;49.092;8.542;2023-02-04T06:44:18;100956.38;;;13.86;54.28
9893;BME280;4985;49.092;8.542;2023-02-04T06:46:44;100963.47;;;13.85;54.28
9893;BME280;4985;49.092;8.542;2023-02-04T06:49:11;100962.63;;;13.85;54.28
9893;BME280;4985;49.092;8.542;2023-02-04T06:51:38;100967.94;;;13.85;54.25
9893;BME280;4985;49.092;8.542;2023-02-04T06:54:04;100964.44;;;13.84;54.26
9893;BME280;4985;49.092;8.542;2023-02-04T06:56:31;100962.50;;;13.86;54.24
9893;BME280;4985;49.092;8.542;2023-02-04T06:58:59;100963.47;;;13.85;54.23
9893;BME280;4985;49.092;8.542;2023-02-04T07:01:26;100965.81;;;13.88;54.23
9893;BME280;4985;49.092;8.542;2023-02-04T07:03:53;100971.12;;;13.88;54.19
9893;BME280;4985;49.092;8.542;2023-02-04T07:06:19;100978.06;;;13.89;54.15
9893;BME280;4985;49.092;8.542;2023-02-04T07:08:46;100984.34;;;13.88;54.17
9893;BME280;4985;49.092;8.542;2023-02-04T07:11:13;100985.34;;;13.87;54.19
9893;BME280;4985;49.092;8.542;2023-02-04T07:13:40;100981.03;;;13.86;54.20
9893;BME280;4985;49.092;8.542;2023-02-04T07:16:08;100982.84;;;13.86;54.23
9893;BME280;4985;49.092;8.542;2023-02-04T07:18:35;100987.28;;;13.85;54.24
9893;BME280;4985;49.092;8.542;2023-02-04T07:21:01;100994.41;;;13.85;54.27
9893;BME280;4985;49.092;8.542;2023-02-04T07:23:28;100991.91;;;13.83;54.30
9893;BME280;4985;49.092;8.542;2023-02-04T07:25:54;101003.47;;;13.82;54.32
9893;BME280;4985;49.092;8.542;2023-02-04T07:28:23;101004.41;;;13.81;54.32
9893;BME280;4985;49.092;8.542;2023-02-04T07:30:50;101012.25;;;13.83;54.32
9893;BME280;4985;49.092;8.542;2023-02-04T07:33:18;101008.62;;;13.84;54.32
9893;BME280;4985;49.092;8.542;2023-02-04T07:35:44;101005.12;;;13.83;54.31
9893;BME280;4985;49.092;8.542;2023-02-04T07:38:11;101001.66;;;13.83;54.30
9893;BME280;4985;49.092;8.542;2023-02-04T07:40:37;101013.09;;;13.83;54.31
9893;BME280;4985;49.092;8.542;2023-02-04T07:43:04;101009.59;;;13.83;54.31
9893;BME280;4985;49.092;8.542;2023-02-04T07:45:31;101031.62;;;13.83;54.32
9893;BME280;4985;49.092;8.542;2023-02-04T07:47:57;101035.94;;;13.84;54.32
9893;BME280;4985;49.092;8.542;2023-02-04T07:50:25;101034.13;;;13.85;54.31
9893;BME280;4985;49.092;8.542;2023-02-04T07:52:52;101040.25;;;13.85;54.28
9893;BME280;4985;49.092;8.542;2023-02-04T07:55:18;101040.25;;;13.85;54.26
9893;BME280;4985;49.092;8.542;2023-02-04T07:57:45;101030.50;;;13.86;54.25
9893;BME280;4985;49.092;8.542;2023-02-04T08:00:13;101034.13;;;13.85;54.26
9893;BME280;4985;49.092;8.542;2023-02-04T08:02:40;101042.06;;;13.85;54.27
9893;BME280;4985;49.092;8.542;2023-02-04T08:05:08;101044.56;;;13.86;54.23
9893;BME280;4985;49.092;8.542;2023-02-04T08:07:36;101056.12;;;13.85;54.24
9893;BME280;4985;49.092;8.542;2023-02-04T08:10:03;101056.12;;;13.85;54.24
9893;BME280;4985;49.092;8.542;2023-02-04T08:12:30;101057.78;;;13.86;54.27
9893;BME280;4985;49.092;8.542;2023-02-04T08:14:57;101061.41;;;13.85;54.25
9893;BME280;4985;49.092;8.542;2023-02-04T08:17:24;101064.91;;;13.86;54.25
9893;BME280;4985;49.092;8.542;2023-02-04T08:19:50;101063.09;;;13.86;54.26
9893;BME280;4985;49.092;8.542;2023-02-04T08:22:17;101060.59;;;13.85;54.27
9893;BME280;4985;49.092;8.542;2023-02-04T08:24:45;101063.38;;;13.83;54.30
9893;BME280;4985;49.092;8.542;2023-02-04T08:27:11;101061.41;;;13.85;54.29
9893;BME280;4985;49.092;8.542;2023-02-04T08:29:38;101065.88;;;13.85;54.30
9893;BME280;4985;49.092;8.542;2023-02-04T08:32:04;101065.06;;;13.84;54.31
9893;BME280;4985;49.092;8.542;2023-02-04T08:34:31;101073.97;;;13.83;54.31
9893;BME280;4985;49.092;8.542;2023-02-04T08:36:58;101079.25;;;13.83;54.33
9893;BME280;4985;49.092;8.542;2023-02-04T08:39:25;101080.94;;;13.84;54.32
9893;BME280;4985;49.092;8.542;2023-02-04T08:41:53;101087.22;;;13.83;54.32
9893;BME280;4985;49.092;8.542;2023-02-04T08:44:19;101091.37;;;13.86;54.29
9893;BME280;4985;49.092;8.542;2023-02-04T08:46:46;101091.53;;;13.84;54.30
9893;BME280;4985;49.092;8.542;2023-02-04T08:49:13;101095.84;;;13.85;54.33
9893;BME280;4985;49.092;8.542;2023-02-04T08:51:39;101093.47;;;13.82;54.35
9893;BME280;4985;49.092;8.542;2023-02-04T08:54:06;101107.41;;;13.84;54.36
9893;BME280;4985;49.092;8.542;2023-02-04T08:56:33;101097.94;;;13.82;54.39
9893;BME280;4985;49.092;8.542;2023-02-04T08:59:01;101110.06;;;13.84;54.38
9893;BME280;4985;49.092;8.542;2023-02-04T09:01:27;101112.69;;;13.84;54.39
9893;BME280;4985;49.092;8.542;2023-02-04T09:03:54;101120.66;;;13.84;54.37
9893;BME280;4985;49.092;8.542;2023-02-04T09:06:21;101118.00;;;13.84;54.39
9893;BME280;4985;49.092;8.542;2023-02-04T09:08:47;101124.97;;;13.85;54.37
9893;BME280;4985;49.092;8.542;2023-02-04T09:11:14;101126.09;;;13.83;54.38
9893;BME280;4985;49.092;8.542;2023-02-04T09:13:41;101114.38;;;13.85;54.35
9893;BME280;4985;49.092;8.542;2023-02-04T09:16:09;101125.78;;;13.86;54.35
9893;BME280;4985;49.092;8.542;2023-02-04T09:18:36;101134.56;;;13.86;54.35
9893;BME280;4985;49.092;8.542;2023-02-04T09:21:03;101130.09;;;13.87;54.32
9893;BME280;4985;49.092;8.542;2023-02-04T09:23:29;101130.09;;;13.87;54.32
9893;BME280;4985;49.092;8.542;2023-02-04T09:25:56;101127.59;;;13.85;54.33
9893;BME280;4985;49.092;8.542;2023-02-04T09:28:23;101138.06;;;13.87;54.36
9893;BME280;4985;49.092;8.542;2023-02-04T09:30:49;101142.37;;;13.88;54.33
9893;BME280;4985;49.092;8.542;2023-02-04T09:33:17;101149.47;;;13.87;54.35
9893;BME280;4985;49.092;8.542;2023-02-04T09:35:44;101149.47;;;13.87;54.39
9893;BME280;4985;49.092;8.542;2023-02-04T09:38:11;101155.59;;;13.88;54.38
9893;BME280;4985;49.092;8.542;2023-02-04T09:40:41;101154.78;;;13.87;54.37
9893;BME280;4985;49.092;8.542;2023-02-04T09:43:11;101153.94;;;13.87;54.40
9893;BME280;4985;49.092;8.542;2023-02-04T09:45:39;101158.25;;;13.88;54.41
9893;BME280;4985;49.092;8.542;2023-02-04T09:48:06;101151.28;;;13.87;54.41
9893;BME280;4985;49.092;8.542;2023-02-04T09:50:36;101153.78;;;13.88;54.43
9893;BME280;4985;49.092;8.542;2023-02-04T09:53:04;101146.69;;;13.89;54.41
9893;BME280;4985;49.092;8.542;2023-02-04T09:55:34;101151.00;;;13.90;54.41
9893;BME280;4985;49.092;8.542;2023-02-04T09:58:01;101162.44;;;13.90;54.40
9893;BME280;4985;49.092;8.542;2023-02-04T10:00:29;101166.75;;;13.91;54.39
9893;BME280;4985;49.092;8.542;2023-02-04T10:02:57;101163.13;;;13.92;54.38
9893;BME280;4985;49.092;8.542;2023-02-04T10:05:28;101159.53;;;13.93;54.40
9893;BME280;4985;49.092;8.542;2023-02-04T10:07:57;101162.28;;;13.92;54.38
9893;BME280;4985;49.092;8.542;2023-02-04T10:10:24;101156.16;;;13.91;54.39
9893;BME280;4985;49.092;8.542;2023-02-04T10:12:55;101158.66;;;13.93;54.40
9893;BME280;4985;49.092;8.542;2023-02-04T10:15:22;101162.19;;;13.93;54.40
9893;BME280;4985;49.092;8.542;2023-02-04T10:17:51;101159.53;;;13.93;54.40
9893;BME280;4985;49.092;8.542;2023-02-04T10:20:21;101156.88;;;13.93;54.38
9893;BME280;4985;49.092;8.542;2023-02-04T10:22:51;101162.19;;;13.93;54.39
9893;BME280;4985;49.092;8.542;2023-02-04T10:25:21;101159.53;;;13.93;54.39
9893;BME280;4985;49.092;8.542;2023-02-04T10:27:51;101165.75;;;13.92;54.40
9893;BME280;4985;49.092;8.542;2023-02-04T10:30:20;101165.66;;;13.94;54.41
9893;BME280;4985;49.092;8.542;2023-02-04T10:32:47;101177.91;;;13.95;54.39
9893;BME280;4985;49.092;8.542;2023-02-04T10:35:15;101176.09;;;13.95;54.39
9893;BME280;4985;49.092;8.542;2023-02-04T10:37:43;101175.13;;;13.96;54.48
9893;BME280;4985;49.092;8.542;2023-02-04T10:40:27;101175.97;;;13.97;54.76
9893;BME280;4985;49.092;8.542;2023-02-04T10:42:55;101171.34;;;13.99;54.83
9893;BME280;4985;49.092;8.542;2023-02-04T10:45:23;101172.19;;;13.99;54.75
9893;BME280;4985;49.092;8.542;2023-02-04T10:47:51;101159.94;;;13.98;54.68
9893;BME280;4985;49.092;8.542;2023-02-04T10:50:20;101169.69;;;13.98;54.68
9893;BME280;4985;49.092;8.542;2023-02-04T10:52:49;101169.53;;;13.99;54.67
9893;BME280;4985;49.092;8.542;2023-02-04T10:55:18;101165.22;;;13.98;54.66
9893;BME280;4985;49.092;8.542;2023-02-04T10:57:47;101164.25;;;13.99;54.63
9893;BME280;4985;49.092;8.542;2023-02-04T11:00:17;101165.09;;;14.00;54.58
9893;BME280;4985;49.092;8.542;2023-02-04T11:02:48;101164.25;;;13.99;54.56
9893;BME280;4985;49.092;8.542;2023-02-04T11:05:19;101165.91;;;14.01;54.56
9893;BME280;4985;49.092;8.542;2023-02-04T11:07:47;101166.91;;;13.99;54.58
9893;BME280;4985;49.092;8.542;2023-02-04T11:10:16;101165.91;;;14.01;54.57
9893;BME280;4985;49.092;8.542;2023-02-04T11:12:44;101165.91;;;14.01;54.54
9893;BME280;4985;49.092;8.542;2023-02-04T11:15:45;101169.41;;;14.01;54.52
9893;BME280;4985;49.092;8.542;2023-02-04T11:18:24;101166.59;;;14.03;54.49
9893;BME280;4985;49.092;8.542;2023-02-04T11:20:54;101173.56;;;14.04;54.46
9893;BME280;4985;49.092;8.542;2023-02-04T11:23:35;101170.94;;;14.04;54.44
9893;BME280;4985;49.092;8.542;2023-02-04T11:26:05;101157.81;;;14.02;54.40
9893;BME280;4985;49.092;8.542;2023-02-04T11:28:54;101168.28;;;14.04;54.41
9893;BME280;4985;49.092;8.542;2023-02-04T11:31:41;101176.22;;;14.04;54.41
9893;BME280;4985;49.092;8.542;2023-02-04T11:34:23;101178.88;;;14.04;54.40
9893;BME280;4985;49.092;8.542;2023-02-04T11:36:56;101166.59;;;14.03;54.38
9893;BME280;4985;49.092;8.542;2023-02-04T11:39:32;101161.06;;;14.06;54.37
9893;BME280;4985;49.092;8.542;2023-02-04T11:41:59;101163.81;;;14.04;54.37
9893;BME280;4985;49.092;8.542;2023-02-04T11:44:26;101167.34;;;14.05;54.38
9893;BME280;4985;49.092;8.542;2023-02-04T11:46:55;101168.28;;;14.04;54.40
9893;BME280;4985;49.092;8.542;2023-02-04T11:49:24;101164.78;;;14.03;54.42
9893;BME280;4985;49.092;8.542;2023-02-04T11:52:03;101169.13;;;14.04;54.44
9893;BME280;4985;49.092;8.542;2023-02-04T11:54:33;101170.94;;;14.04;54.45
9893;BME280;4985;49.092;8.542;2023-02-04T11:57:00;101162.97;;;14.04;54.45
9893;BME280;4985;49.092;8.542;2023-02-04T11:59:26;101158.66;;;14.03;54.48
9893;BME280;4985;49.092;8.542;2023-02-04T12:02:04;101161.31;;;14.03;54.53
9893;BME280;4985;49.092;8.542;2023-02-04T12:04:31;101160.47;;;14.02;54.55
9893;BME280;4985;49.092;8.542;2023-02-04T12:06:59;101156.00;;;14.03;54.55
9893;BME280;4985;49.092;8.542;2023-02-04T12:09:27;101159.66;;;14.02;54.56
9893;BME280;4985;49.092;8.542;2023-02-04T12:11:57;101160.62;;;14.01;54.55
9893;BME280;4985;49.092;8.542;2023-02-04T12:14:29;101163.81;;;14.04;54.54
9893;BME280;4985;49.092;8.542;2023-02-04T12:16:56;101177.94;;;14.05;54.52
9893;BME280;4985;49.092;8.542;2023-02-04T12:19:25;101174.28;;;14.06;54.49
9893;BME280;4985;49.092;8.542;2023-02-04T12:21:51;101160.06;;;14.07;54.48
9893;BME280;4985;49.092;8.542;2023-02-04T12:24:19;101157.28;;;14.08;54.47
9893;BME280;4985;49.092;8.542;2023-02-04T12:26:45;101158.13;;;14.09;54.45
9893;BME280;4985;49.092;8.542;2023-02-04T12:29:12;101158.25;;;14.07;54.46
9893;BME280;4985;49.092;8.542;2023-02-04T12:31:39;101160.22;;;14.05;54.45
9893;BME280;4985;49.092;8.542;2023-02-04T12:34:05;101167.88;;;14.08;54.46
9893;BME280;4985;49.092;8.542;2023-02-04T12:36:33;101161.75;;;14.08;54.47
9893;BME280;4985;49.092;8.542;2023-02-04T12:39:00;101165.09;;;14.10;54.46
9893;BME280;4985;49.092;8.542;2023-02-04T12:41:27;101174.84;;;14.09;54.46
9893;BME280;4985;49.092;8.542;2023-02-04T12:43:53;101175.69;;;14.10;54.45
9893;BME280;4985;49.092;8.542;2023-02-04T12:46:20;101168.72;;;14.09;54.44
9893;BME280;4985;49.092;8.542;2023-02-04T12:48:47;101174.84;;;14.09;54.46
9893;BME280;4985;49.092;8.542;2023-02-04T12:51:14;101162.44;;;14.10;54.46
9893;BME280;4985;49.092;8.542;2023-02-04T12:53:42;101166.75;;;14.11;54.44
9893;BME280;4985;49.092;8.542;2023-02-04T12:56:08;101165.91;;;14.10;54.45
9893;BME280;4985;49.092;8.542;2023-02-04T12:58:35;101162.28;;;14.11;54.45
9893;BME280;4985;49.092;8.542;2023-02-04T13:01:02;101165.09;;;14.10;54.45
9893;BME280;4985;49.092;8.542;2023-02-04T13:03:29;101161.47;;;14.11;54.45
9893;BME280;4985;49.092;8.542;2023-02-04T13:05:56;101165.09;;;14.10;54.46
9893;BME280;4985;49.092;8.542;2023-02-04T13:08:22;101169.25;;;14.12;54.46
9893;BME280;4985;49.092;8.542;2023-02-04T13:10:50;101170.94;;;14.13;54.45
9893;BME280;4985;49.092;8.542;2023-02-04T13:13:18;101177.06;;;14.14;54.46